Time;durP1;ratioP1;P1;durP2;ratioP2;P2;SDS_P1;SDS_P2;PMS_P1;PMS_P2;Temp;Humidity;BMP_temperature;BMP_pressure;BME280_temperature;BME280_humidity;BME280_pressure;Samples;Min_cycle;Max_cycle;Signal;HPM_P1;HPM_P2
2021/07/16 00:00:17;;;;;;;28.60;5.47;;;17.60;99.90;;;;;;5093356;28;20060;-84
2021/07/16 00:02:51;;;;;;;25.98;6.20;;;17.50;99.90;;;;;;5095019;28;20500;-84
2021/07/16 00:05:20;;;;;;;29.63;6.25;;;17.50;99.90;;;;;;5091694;28;20032;-84
2021/07/16 00:07:46;;;;;;;29.00;5.55;;;17.50;99.90;;;;;;5094790;28;20043;-84
2021/07/16 00:10:16;;;;;;;31.23;6.80;;;17.50;99.90;;;;;;5094591;28;20040;-85
2021/07/16 00:12:43;;;;;;;20.20;5.30;;;17.50;99.90;;;;;;5081905;28;20089;-84
2021/07/16 00:15:10;;;;;;;22.67;4.95;;;17.40;99.90;;;;;;5085989;28;20032;-84
2021/07/16 00:17:36;;;;;;;24.15;5.00;;;17.40;99.90;;;;;;5094741;28;20031;-84
2021/07/16 00:20:04;;;;;;;27.27;5.22;;;17.40;99.90;;;;;;5089593;28;20412;-85
2021/07/16 00:22:39;;;;;;;25.95;5.10;;;17.40;99.90;;;;;;5091083;28;20131;-85
2021/07/16 00:25:08;;;;;;;28.48;6.20;;;17.40;99.90;;;;;;5081536;28;20040;-84
2021/07/16 00:27:34;;;;;;;19.17;4.95;;;17.60;99.90;;;;;;5063732;28;20036;-85
2021/07/16 00:30:00;;;;;;;24.60;4.95;;;17.40;99.90;;;;;;5091661;28;20040;-85
2021/07/16 00:32:26;;;;;;;24.60;5.78;;;17.40;99.90;;;;;;5088240;28;20036;-84
2021/07/16 00:34:52;;;;;;;20.92;4.50;;;17.40;99.90;;;;;;5093077;28;20123;-84
2021/07/16 00:37:19;;;;;;;23.77;5.50;;;17.40;99.90;;;;;;5068061;28;20052;-84
2021/07/16 00:39:45;;;;;;;20.88;4.90;;;17.40;99.90;;;;;;5091143;28;20039;-86
2021/07/16 00:42:13;;;;;;;25.58;5.15;;;17.40;99.90;;;;;;5094390;28;20059;-79
2021/07/16 00:44:39;;;;;;;23.63;5.43;;;17.40;99.90;;;;;;5052710;28;20040;-79
2021/07/16 00:47:06;;;;;;;20.55;4.72;;;17.40;99.90;;;;;;5092861;28;20058;-79
2021/07/16 00:49:33;;;;;;;26.92;4.95;;;17.30;99.90;;;;;;5093000;28;20147;-86
2021/07/16 00:52:03;;;;;;;25.67;5.15;;;17.30;99.90;;;;;;5085821;28;20070;-85
2021/07/16 00:54:29;;;;;;;25.27;4.80;;;17.30;99.90;;;;;;5072916;28;20040;-85
2021/07/16 00:56:55;;;;;;;30.52;6.88;;;17.30;99.90;;;;;;5083881;28;20041;-85
2021/07/16 00:59:22;;;;;;;23.92;4.93;;;17.50;99.90;;;;;;5091296;28;20032;-86
2021/07/16 01:01:49;;;;;;;27.85;5.18;;;17.30;99.90;;;;;;5086604;28;20056;-86
2021/07/16 01:04:14;;;;;;;20.80;4.60;;;17.30;99.90;;;;;;5078528;28;20526;-86
2021/07/16 01:06:41;;;;;;;29.17;4.78;;;17.30;99.90;;;;;;5090660;28;20118;-86
2021/07/16 01:09:06;;;;;;;27.38;5.22;;;17.30;99.90;;;;;;5092429;28;20040;-85
2021/07/16 01:11:34;;;;;;;24.05;4.78;;;17.30;99.90;;;;;;5083024;28;20396;-85
2021/07/16 01:14:00;;;;;;;24.55;5.72;;;17.30;99.90;;;;;;5088348;28;20028;-85
2021/07/16 01:16:26;;;;;;;29.65;5.75;;;17.30;99.90;;;;;;5092327;28;20042;-85
2021/07/16 01:18:52;;;;;;;32.63;5.28;;;17.40;99.90;;;;;;5092207;28;20119;-85
2021/07/16 01:21:18;;;;;;;22.45;4.60;;;17.30;99.90;;;;;;5086409;28;20135;-86
2021/07/16 01:23:44;;;;;;;26.40;4.78;;;17.30;99.90;;;;;;5087834;28;20503;-80
2021/07/16 01:26:11;;;;;;;26.52;4.80;;;17.30;99.90;;;;;;5075160;28;20036;-79
2021/07/16 01:28:38;;;;;;;24.92;4.88;;;17.40;99.90;;;;;;5087780;28;20059;-80
2021/07/16 01:31:07;;;;;;;27.23;5.00;;;17.30;99.90;;;;;;5088381;28;20036;-79
2021/07/16 01:33:33;;;;;;;25.88;5.03;;;17.30;99.90;;;;;;5082848;28;20047;-79
2021/07/16 01:36:05;;;;;;;25.00;4.63;;;17.30;99.90;;;;;;5093081;28;20084;-79
2021/07/16 01:38:31;;;;;;;28.38;5.35;;;17.10;99.90;;;;;;5093046;28;20119;-79
2021/07/16 01:40:57;;;;;;;29.00;5.80;;;17.30;99.90;;;;;;5089380;28;20429;-79
2021/07/16 01:43:23;;;;;;;22.15;5.00;;;17.30;99.90;;;;;;5085348;28;20032;-80
2021/07/16 01:45:49;;;;;;;30.45;4.68;;;17.30;99.90;;;;;;5075595;28;20048;-79
2021/07/16 01:48:16;;;;;;;20.60;5.22;;;17.40;99.90;;;;;;5071414;28;20036;-80
2021/07/16 01:50:46;;;;;;;27.48;4.95;;;17.30;99.90;;;;;;5081326;28;20490;-80
2021/07/16 01:53:14;;;;;;;21.80;5.05;;;17.30;99.90;;;;;;5091303;28;20182;-80
2021/07/16 01:55:50;;;;;;;27.73;6.85;;;17.30;99.90;;;;;;5085614;28;20040;-80
2021/07/16 01:58:19;;;;;;;24.88;4.88;;;17.30;99.90;;;;;;5091247;28;20479;-80
2021/07/16 02:00:48;;;;;;;25.02;4.97;;;17.30;99.90;;;;;;5089224;28;20045;-79
2021/07/16 02:03:16;;;;;;;27.88;4.68;;;17.30;99.90;;;;;;5088865;28;20052;-80
2021/07/16 02:05:44;;;;;;;20.65;5.28;;;17.30;99.90;;;;;;5091914;28;20032;-79
2021/07/16 02:08:15;;;;;;;25.45;5.13;;;17.30;99.90;;;;;;5092404;28;20046;-81
2021/07/16 02:10:52;;;;;;;21.50;4.85;;;17.30;99.90;;;;;;5085445;28;20032;-80
2021/07/16 02:13:19;;;;;;;23.77;5.18;;;17.30;99.90;;;;;;5069942;28;20048;-80
2021/07/16 02:15:46;;;;;;;26.40;5.20;;;17.30;99.90;;;;;;5082933;28;20032;-80
2021/07/16 02:18:13;;;;;;;25.80;4.80;;;17.30;99.90;;;;;;5092312;28;20036;-80
2021/07/16 02:20:48;;;;;;;27.30;5.13;;;17.30;99.90;;;;;;5091134;28;20063;-80
2021/07/16 02:23:26;;;;;;;24.42;4.82;;;17.30;99.90;;;;;;5091435;28;20032;-80
2021/07/16 02:25:55;;;;;;;29.27;5.60;;;17.30;99.90;;;;;;5080841;28;20028;-80
2021/07/16 02:28:23;;;;;;;27.13;4.97;;;17.30;99.90;;;;;;5071220;28;20050;-80
2021/07/16 02:30:50;;;;;;;27.50;4.88;;;17.30;99.90;;;;;;5085300;28;20060;-80
2021/07/16 02:33:16;;;;;;;30.45;5.22;;;17.30;99.90;;;;;;5083701;28;20111;-80
2021/07/16 02:35:45;;;;;;;25.85;5.05;;;17.30;99.90;;;;;;5080048;28;20036;-80
2021/07/16 02:38:14;;;;;;;28.55;5.20;;;17.30;99.90;;;;;;5091108;28;20066;-80
2021/07/16 02:40:40;;;;;;;31.05;6.07;;;17.30;99.90;;;;;;5060613;28;20050;-80
2021/07/16 02:43:08;;;;;;;31.23;4.97;;;17.30;99.90;;;;;;5083468;28;20421;-80
2021/07/16 02:45:35;;;;;;;34.67;5.97;;;17.20;99.90;;;;;;5055127;28;20527;-80
2021/07/16 02:48:01;;;;;;;32.88;5.53;;;17.40;99.90;;;;;;5092250;28;20429;-79
2021/07/16 02:50:33;;;;;;;28.40;5.30;;;17.40;99.90;;;;;;5090919;28;20391;-79
2021/07/16 02:53:00;;;;;;;25.00;4.45;;;17.30;99.90;;;;;;5092070;28;20043;-86
2021/07/16 02:55:26;;;;;;;38.55;6.63;;;17.30;99.90;;;;;;5079168;28;20093;-86
2021/07/16 02:57:52;;;;;;;31.85;5.95;;;17.30;99.90;;;;;;5072429;28;20035;-85
2021/07/16 03:00:29;;;;;;;28.67;5.55;;;17.30;99.90;;;;;;5089836;28;20177;-85
2021/07/16 03:02:56;;;;;;;27.15;5.63;;;17.30;99.90;;;;;;5094042;28;20043;-85
2021/07/16 03:05:25;;;;;;;32.05;5.65;;;17.30;99.90;;;;;;5095081;28;20402;-85
2021/07/16 03:07:55;;;;;;;25.38;5.07;;;17.30;99.90;;;;;;5094622;28;20110;-86
2021/07/16 03:10:32;;;;;;;29.90;5.75;;;17.30;99.90;;;;;;5083711;28;20040;-80
2021/07/16 03:13:09;;;;;;;28.33;4.80;;;17.30;99.90;;;;;;5095847;28;20096;-79
2021/07/16 03:15:35;;;;;;;37.88;5.82;;;17.30;99.90;;;;;;5090225;28;20143;-80
2021/07/16 03:18:04;;;;;;;22.92;5.30;;;17.30;99.90;;;;;;5087694;28;20107;-80
2021/07/16 03:20:44;;;;;;;38.08;6.32;;;17.30;99.90;;;;;;5085098;28;20578;-80
2021/07/16 03:23:12;;;;;;;33.83;6.07;;;17.30;99.90;;;;;;5082352;28;20086;-80
2021/07/16 03:25:38;;;;;;;32.08;5.70;;;17.30;99.90;;;;;;5094346;28;20043;-80
2021/07/16 03:28:09;;;;;;;35.03;5.60;;;17.30;99.90;;;;;;5082794;28;20366;-80
2021/07/16 03:30:35;;;;;;;32.83;5.93;;;17.20;99.90;;;;;;5084255;28;20031;-80
2021/07/16 03:33:03;;;;;;;31.13;5.60;;;17.20;99.90;;;;;;5087500;28;20044;-80
2021/07/16 03:35:29;;;;;;;26.42;5.32;;;17.20;99.90;;;;;;5070013;28;20396;-79
2021/07/16 03:37:56;;;;;;;25.67;4.75;;;17.20;99.90;;;;;;5073867;28;20044;-80
2021/07/16 03:40:27;;;;;;;34.92;5.97;;;17.30;99.90;;;;;;5081037;28;20044;-86
2021/07/16 03:42:57;;;;;;;36.45;6.15;;;17.20;99.90;;;;;;5089709;28;20028;-86
2021/07/16 03:45:24;;;;;;;31.15;5.35;;;17.20;99.90;;;;;;5081776;28;20126;-86
2021/07/16 03:47:50;;;;;;;31.48;6.00;;;17.20;99.90;;;;;;5089671;28;20043;-85
2021/07/16 03:50:20;;;;;;;34.78;6.07;;;17.20;99.90;;;;;;5064747;28;20044;-85
2021/07/16 03:52:46;;;;;;;35.88;5.93;;;17.20;99.90;;;;;;5089327;28;20055;-85
2021/07/16 03:55:13;;;;;;;36.25;6.45;;;17.20;99.90;;;;;;5080127;28;20038;-79
2021/07/16 03:57:48;;;;;;;35.15;6.93;;;17.20;99.90;;;;;;5086436;28;20044;-79
2021/07/16 04:00:17;;;;;;;38.92;6.35;;;17.20;99.90;;;;;;5091091;28;20036;-79
2021/07/16 04:02:43;;;;;;;34.28;6.28;;;17.20;99.90;;;;;;5088559;28;20043;-79
2021/07/16 04:05:10;;;;;;;29.88;5.72;;;17.30;99.90;;;;;;5086055;28;20036;-80
2021/07/16 04:07:44;;;;;;;34.22;6.40;;;17.20;99.90;;;;;;5092464;28;20032;-80
2021/07/16 04:10:12;;;;;;;35.17;5.57;;;17.20;99.90;;;;;;5074839;28;20036;-80
2021/07/16 04:12:38;;;;;;;30.08;5.80;;;17.20;99.90;;;;;;5086161;28;20492;-80
2021/07/16 04:15:05;;;;;;;36.40;6.25;;;17.20;99.90;;;;;;5081110;28;20162;-80
2021/07/16 04:17:32;;;;;;;31.58;6.22;;;17.20;99.90;;;;;;5076519;28;20040;-86
2021/07/16 04:19:58;;;;;;;42.55;6.97;;;17.20;99.90;;;;;;5073573;28;20470;-86
2021/07/16 04:22:24;;;;;;;30.35;6.22;;;17.20;99.90;;;;;;5076648;28;20039;-85
2021/07/16 04:24:52;;;;;;;32.80;5.70;;;17.20;99.90;;;;;;5084938;28;20032;-80
2021/07/16 04:27:18;;;;;;;46.20;7.57;;;17.20;99.90;;;;;;5092821;28;20047;-86
2021/07/16 04:29:44;;;;;;;25.00;5.57;;;17.20;99.90;;;;;;5094076;28;20032;-87
2021/07/16 04:32:13;;;;;;;34.22;6.43;;;17.20;99.90;;;;;;5091305;28;20056;-86
2021/07/16 04:34:42;;;;;;;37.30;6.13;;;17.20;99.90;;;;;;5077583;28;20029;-86
2021/07/16 04:37:08;;;;;;;35.47;6.22;;;17.20;99.90;;;;;;5054570;28;20180;-86
2021/07/16 04:39:35;;;;;;;33.67;6.30;;;17.20;99.90;;;;;;5060259;28;20048;-86
2021/07/16 04:42:04;;;;;;;30.23;6.40;;;17.20;99.90;;;;;;5086163;28;20040;-87
2021/07/16 04:44:31;;;;;;;37.55;6.45;;;17.20;99.90;;;;;;5092892;28;20543;-87
2021/07/16 04:46:57;;;;;;;44.15;6.57;;;17.20;99.90;;;;;;5093219;28;20043;-81
2021/07/16 04:49:24;;;;;;;28.02;5.38;;;17.20;99.90;;;;;;5093748;28;20039;-80
2021/07/16 04:51:50;;;;;;;36.17;6.78;;;17.20;99.90;;;;;;5072448;28;20048;-81
2021/07/16 04:54:16;;;;;;;30.63;6.07;;;17.20;99.90;;;;;;5089058;28;20059;-80
2021/07/16 04:56:43;;;;;;;38.75;6.72;;;17.20;99.90;;;;;;5089094;28;20067;-80
2021/07/16 04:59:17;;;;;;;;;;;17.20;99.90;;;;;;5088434;28;20043;-80
2021/07/16 05:01:43;;;;;;;;;;;17.20;99.90;;;;;;5092583;28;20011;-80
2021/07/16 05:04:10;;;;;;;;;;;17.20;99.90;;;;;;5087041;28;19916;-80
2021/07/16 05:06:36;;;;;;;35.85;6.40;;;17.20;99.90;;;;;;5091265;28;19916;-80
2021/07/16 05:09:03;;;;;;;39.15;6.43;;;17.20;99.90;;;;;;5081325;28;20396;-80
2021/07/16 05:11:30;;;;;;;38.25;6.70;;;17.20;99.90;;;;;;5093725;28;20539;-80
2021/07/16 05:13:57;;;;;;;39.58;7.03;;;17.30;99.90;;;;;;5090419;28;20032;-80
2021/07/16 05:16:24;;;;;;;39.58;7.00;;;17.30;99.90;;;;;;5092310;28;20107;-81
2021/07/16 05:18:50;;;;;;;40.30;6.30;;;17.20;99.90;;;;;;5092018;28;20402;-80
2021/07/16 05:21:16;;;;;;;34.70;6.47;;;17.20;99.90;;;;;;5091535;28;20040;-80
2021/07/16 05:23:43;;;;;;;34.15;5.85;;;17.20;99.90;;;;;;5075833;28;20480;-80
2021/07/16 05:26:10;;;;;;;31.88;5.85;;;17.20;99.90;;;;;;5092652;28;20063;-85
2021/07/16 05:28:36;;;;;;;30.25;6.35;;;17.30;99.90;;;;;;5089737;28;20036;-80
2021/07/16 05:31:03;;;;;;;30.48;5.85;;;17.30;99.90;;;;;;5076065;28;20503;-85
2021/07/16 05:33:29;;;;;;;40.40;6.10;;;17.30;99.90;;;;;;5071899;28;20044;-85
2021/07/16 05:35:54;;;;;;;39.20;6.70;;;17.30;99.90;;;;;;5074360;28;20043;-85
2021/07/16 05:38:25;;;;;;;34.70;6.50;;;17.30;99.90;;;;;;5091570;28;20054;-85
2021/07/16 05:40:52;;;;;;;45.83;7.68;;;17.30;99.90;;;;;;5088891;28;20111;-85
2021/07/16 05:43:17;;;;;;;36.72;6.38;;;17.30;99.90;;;;;;5082204;28;20061;-85
2021/07/16 05:45:44;;;;;;;40.70;7.30;;;17.30;99.90;;;;;;5084515;28;20071;-86
2021/07/16 05:48:10;;;;;;;37.47;7.35;;;17.30;99.90;;;;;;5090226;28;20032;-85
2021/07/16 05:50:42;;;;;;;38.40;6.38;;;17.30;99.90;;;;;;5087794;28;20089;-85
2021/07/16 05:53:10;;;;;;;34.75;6.35;;;17.30;99.90;;;;;;5086568;28;20057;-86
2021/07/16 05:55:39;;;;;;;40.92;6.78;;;17.30;99.90;;;;;;5090381;28;20040;-84
2021/07/16 05:58:05;;;;;;;37.97;6.47;;;17.40;99.90;;;;;;5103233;28;20029;-86
2021/07/16 06:00:32;;;;;;;31.85;6.43;;;17.40;99.90;;;;;;5084922;28;20085;-85
2021/07/16 06:02:58;;;;;;;37.70;6.45;;;17.40;99.90;;;;;;5085145;28;20035;-81
2021/07/16 06:05:24;;;;;;;40.30;6.53;;;17.20;99.90;;;;;;5086270;28;20089;-85
2021/07/16 06:07:59;;;;;;;34.55;6.00;;;17.40;99.90;;;;;;5067230;28;20107;-81
2021/07/16 06:10:29;;;;;;;39.70;6.95;;;17.40;99.90;;;;;;5092109;28;20047;-82
2021/07/16 06:13:00;;;;;;;38.08;7.07;;;17.40;99.90;;;;;;5080897;28;20488;-86
2021/07/16 06:15:29;;;;;;;40.53;6.65;;;17.40;99.90;;;;;;5090113;28;20116;-81
2021/07/16 06:17:55;;;;;;;37.75;7.43;;;17.40;99.90;;;;;;5091564;28;20036;-86
2021/07/16 06:20:22;;;;;;;41.17;6.88;;;17.40;99.90;;;;;;5092738;28;20549;-82
2021/07/16 06:22:48;;;;;;;34.08;6.57;;;17.30;99.90;;;;;;5082412;28;20059;-81
2021/07/16 06:25:17;;;;;;;42.30;7.47;;;17.40;99.90;;;;;;5086852;28;20035;-80
2021/07/16 06:27:47;;;;;;;36.78;7.10;;;17.40;99.90;;;;;;5060015;28;20063;-80
2021/07/16 06:30:15;;;;;;;35.00;5.93;;;17.40;99.90;;;;;;5072228;28;20079;-85
2021/07/16 06:32:43;;;;;;;40.17;6.78;;;17.50;99.90;;;;;;5091881;28;20104;-81
2021/07/16 06:35:16;;;;;;;40.47;6.60;;;17.40;99.90;;;;;;5090762;28;20066;-85
2021/07/16 06:37:42;;;;;;;39.70;7.22;;;17.40;99.90;;;;;;5056928;28;20477;-86
2021/07/16 06:40:15;;;;;;;42.30;7.35;;;17.40;99.90;;;;;;5084746;28;20455;-82
2021/07/16 06:42:41;;;;;;;38.35;6.60;;;17.70;99.90;;;;;;5095230;28;20471;-85
2021/07/16 06:45:09;;;;;;;38.05;6.30;;;17.40;99.90;;;;;;5061945;28;20047;-80
2021/07/16 06:47:35;;;;;;;36.90;6.22;;;17.50;99.90;;;;;;5095120;28;20475;-80
2021/07/16 06:50:01;;;;;;;33.90;6.53;;;17.50;99.90;;;;;;5058197;28;20059;-81
2021/07/16 06:52:28;;;;;;;38.13;7.00;;;17.50;99.90;;;;;;5085216;28;20072;-79
2021/07/16 06:54:55;;;;;;;37.40;6.85;;;17.50;99.90;;;;;;5095548;28;20032;-81
2021/07/16 06:57:21;;;;;;;38.28;6.90;;;17.50;99.90;;;;;;5080599;28;20036;-86
2021/07/16 06:59:47;;;;;;;42.17;6.82;;;17.50;99.90;;;;;;5075632;28;20479;-81
2021/07/16 07:02:13;;;;;;;38.15;6.53;;;17.50;99.90;;;;;;5087623;28;20477;-86
2021/07/16 07:04:41;;;;;;;36.15;6.32;;;17.50;99.90;;;;;;5095732;28;20028;-81
2021/07/16 07:07:07;;;;;;;34.17;6.35;;;17.60;99.90;;;;;;5081870;28;20114;-82
2021/07/16 07:09:35;;;;;;;40.17;6.32;;;17.60;99.90;;;;;;5079001;28;20043;-88
2021/07/16 07:12:01;;;;;;;50.85;7.28;;;17.60;99.90;;;;;;5078581;28;20395;-82
2021/07/16 07:14:27;;;;;;;42.30;6.53;;;17.60;99.90;;;;;;5069125;28;20037;-86
2021/07/16 07:16:55;;;;;;;36.42;6.93;;;17.60;99.90;;;;;;5080705;28;20040;-78
2021/07/16 07:19:21;;;;;;;41.67;7.13;;;17.60;99.90;;;;;;5095480;28;20503;-83
2021/07/16 07:21:47;;;;;;;35.47;6.00;;;17.70;99.90;;;;;;5091795;28;20043;-79
2021/07/16 07:24:18;;;;;;;32.40;6.63;;;17.70;99.90;;;;;;5057127;28;20028;-78
2021/07/16 07:26:44;;;;;;;35.28;6.57;;;17.70;99.90;;;;;;5088969;28;20396;-84
2021/07/16 07:29:10;;;;;;;35.10;6.72;;;17.80;99.90;;;;;;5062538;28;20036;-79
2021/07/16 07:31:36;;;;;;;42.05;7.82;;;17.80;99.90;;;;;;5090196;28;20071;-77
2021/07/16 07:34:02;;;;;;;44.75;7.10;;;17.80;99.90;;;;;;5074875;28;20067;-78
2021/07/16 07:36:29;;;;;;;39.78;7.60;;;17.90;99.90;;;;;;5071659;28;20519;-77
2021/07/16 07:38:55;;;;;;;36.08;6.50;;;17.60;99.90;;;;;;5089015;28;20093;-77
2021/07/16 07:41:21;;;;;;;39.65;6.57;;;17.90;99.90;;;;;;5085748;28;20036;-77
2021/07/16 07:43:47;;;;;;;36.75;6.60;;;17.90;99.90;;;;;;5081543;28;20042;-78
2021/07/16 07:46:14;;;;;;;38.13;6.70;;;17.90;99.90;;;;;;5081930;28;20114;-77
2021/07/16 07:48:41;;;;;;;35.97;6.80;;;17.90;99.90;;;;;;5081835;28;20033;-78
2021/07/16 07:51:15;;;;;;;39.92;6.43;;;17.90;99.90;;;;;;5092743;28;20461;-78
2021/07/16 07:53:40;;;;;;;36.80;7.07;;;18.00;99.90;;;;;;5084355;28;20063;-78
2021/07/16 07:56:06;;;;;;;37.67;7.00;;;18.00;99.90;;;;;;5092279;28;20060;-78
2021/07/16 07:58:32;;;;;;;35.28;6.45;;;18.00;99.90;;;;;;5082190;28;20032;-78
2021/07/16 08:00:58;;;;;;;28.13;6.05;;;18.00;99.90;;;;;;5070784;28;20118;-78
2021/07/16 08:03:24;;;;;;;47.05;7.97;;;17.90;99.90;;;;;;5085094;28;20040;-78
2021/07/16 08:05:50;;;;;;;33.92;6.25;;;17.90;99.90;;;;;;5079200;28;20074;-78
2021/07/16 08:08:16;;;;;;;39.28;7.03;;;18.00;99.90;;;;;;5084478;28;20039;-78
2021/07/16 08:10:42;;;;;;;32.13;6.40;;;18.00;99.90;;;;;;5082817;28;20032;-77
2021/07/16 08:13:08;;;;;;;36.40;6.68;;;18.00;99.90;;;;;;5071623;28;20058;-78
2021/07/16 08:15:34;;;;;;;40.13;7.15;;;18.00;99.90;;;;;;5086324;28;20032;-74
2021/07/16 08:18:00;;;;;;;36.75;6.38;;;18.10;99.90;;;;;;5090068;28;20169;-85
2021/07/16 08:20:26;;;;;;;36.47;6.45;;;18.10;99.90;;;;;;5078145;28;20051;-85
2021/07/16 08:22:55;;;;;;;44.70;7.97;;;18.20;99.90;;;;;;5094530;28;20391;-84
2021/07/16 08:25:21;;;;;;;37.25;7.10;;;18.10;99.90;;;;;;5058740;28;20423;-84
2021/07/16 08:27:50;;;;;;;35.05;5.82;;;18.10;99.90;;;;;;5056733;28;20051;-84
2021/07/16 08:30:19;;;;;;;36.97;7.25;;;18.10;99.90;;;;;;5088250;28;20040;-84
2021/07/16 08:32:45;;;;;;;37.58;6.93;;;18.10;99.90;;;;;;5094490;28;20040;-84
2021/07/16 08:35:14;;;;;;;33.58;6.78;;;18.10;99.90;;;;;;5088344;28;20041;-84
2021/07/16 08:37:47;;;;;;;34.03;6.20;;;18.10;99.90;;;;;;5077660;28;20050;-80
2021/07/16 08:40:19;;;;;;;37.80;7.15;;;18.10;99.90;;;;;;5091716;28;20094;-80
2021/07/16 08:42:51;;;;;;;39.88;7.88;;;18.10;99.90;;;;;;5056528;28;20502;-80
2021/07/16 08:45:18;;;;;;;39.70;6.95;;;18.10;99.90;;;;;;5080420;28;20031;-81
2021/07/16 08:47:49;;;;;;;39.47;6.47;;;18.10;99.90;;;;;;5088095;28;20032;-80
2021/07/16 08:50:15;;;;;;;35.90;6.97;;;18.10;99.90;;;;;;5088904;28;20482;-81
2021/07/16 08:52:45;;;;;;;40.85;6.75;;;18.10;99.90;;;;;;5070366;28;20420;-81
2021/07/16 08:55:18;;;;;;;39.72;7.82;;;18.10;99.90;;;;;;5087589;28;20035;-80
2021/07/16 08:57:44;;;;;;;34.05;6.30;;;18.10;99.90;;;;;;5087998;28;20093;-81
2021/07/16 09:00:12;;;;;;;42.13;7.07;;;18.10;99.90;;;;;;5087882;28;20145;-82
2021/07/16 09:02:57;;;;;;;39.85;6.93;;;18.10;99.90;;;;;;5071694;28;20425;-83
2021/07/16 09:05:39;;;;;;;43.97;6.82;;;18.10;99.90;;;;;;5089451;28;20080;-83
2021/07/16 09:08:18;;;;;;;38.63;6.65;;;18.10;99.90;;;;;;5087501;28;21150;-82
2021/07/16 09:10:51;;;;;;;36.80;7.38;;;18.10;99.90;;;;;;5086258;28;20044;-82
2021/07/16 09:13:19;;;;;;;37.10;7.30;;;18.10;99.90;;;;;;5082071;28;20411;-82
2021/07/16 09:15:53;;;;;;;45.70;8.15;;;18.10;99.90;;;;;;5087813;28;20505;-81
2021/07/16 09:18:49;;;;;;;35.42;6.97;;;18.10;99.90;;;;;;5065032;28;20511;-88
2021/07/16 09:21:16;;;;;;;36.08;7.30;;;18.20;99.90;;;;;;5088130;28;20043;-80
2021/07/16 09:23:46;;;;;;;40.45;7.15;;;18.20;99.90;;;;;;5087118;28;20470;-84
2021/07/16 09:26:23;;;;;;;42.28;8.43;;;18.20;99.90;;;;;;5086877;28;20060;-84
2021/07/16 09:28:50;;;;;;;47.20;7.97;;;18.20;99.90;;;;;;5084195;28;20036;-82
2021/07/16 09:31:23;;;;;;;38.78;7.35;;;18.30;99.90;;;;;;5086863;28;20556;-81
2021/07/16 09:34:01;;;;;;;39.00;6.85;;;18.30;99.90;;;;;;5088028;28;20109;-82
2021/07/16 09:36:30;;;;;;;45.50;8.10;;;18.30;99.90;;;;;;5085390;28;20036;-81
2021/07/16 09:39:09;;;;;;;40.15;7.68;;;18.30;99.90;;;;;;5072076;28;20488;-82
2021/07/16 09:41:55;;;;;;;35.70;6.90;;;18.30;99.90;;;;;;5087430;28;20128;-82
2021/07/16 09:44:36;;;;;;;37.50;7.07;;;18.30;99.90;;;;;;5084177;28;20051;-82
2021/07/16 09:47:49;;;;;;;35.85;7.03;;;18.30;99.90;;;;;;5086519;28;20032;-81
2021/07/16 09:50:20;;;;;;;31.15;7.00;;;18.40;99.90;;;;;;5025768;28;20385;-80
2021/07/16 09:52:47;;;;;;;41.60;7.18;;;18.40;99.90;;;;;;4993212;28;20216;-81
2021/07/16 09:58:29;;;;;;;35.55;7.30;;;18.50;99.90;;;;;;5036204;28;20061;-81
2021/07/16 10:00:57;;;;;;;30.85;7.20;;;18.50;99.90;;;;;;5081496;28;20046;-81
2021/07/16 10:03:23;;;;;;;36.67;7.32;;;18.50;99.90;;;;;;5087561;28;20058;-81
2021/07/16 10:05:50;;;;;;;39.30;7.35;;;18.50;99.90;;;;;;5070804;28;20119;-81
2021/07/16 10:08:19;;;;;;;43.88;8.43;;;18.50;99.90;;;;;;5086425;28;20028;-81
2021/07/16 10:10:51;;;;;;;39.42;8.20;;;18.70;99.90;;;;;;5085458;28;20115;-80
2021/07/16 10:13:19;;;;;;;43.38;9.57;;;18.60;99.90;;;;;;5080897;28;20564;-83
2021/07/16 10:15:48;;;;;;;42.28;11.88;;;18.80;99.90;;;;;;5084242;28;20036;-83
2021/07/16 10:18:21;;;;;;;32.50;7.32;;;18.60;99.90;;;;;;5085170;28;20387;-83
2021/07/16 10:20:50;;;;;;;42.10;8.02;;;18.60;99.90;;;;;;5087049;28;20111;-84
2021/07/16 10:23:16;;;;;;;36.90;7.75;;;18.60;99.90;;;;;;5100192;28;20124;-83
2021/07/16 10:25:44;;;;;;;38.63;7.05;;;18.70;99.90;;;;;;5074674;28;20659;-80
2021/07/16 10:28:28;;;;;;;38.38;7.03;;;18.70;99.90;;;;;;5082593;28;20549;-78
2021/07/16 10:30:54;;;;;;;39.90;7.35;;;18.70;99.90;;;;;;5078002;28;20055;-78
2021/07/16 10:33:33;;;;;;;44.88;7.47;;;18.70;99.90;;;;;;5062959;28;20381;-78
2021/07/16 10:35:59;;;;;;;37.15;7.35;;;18.70;99.90;;;;;;5078086;28;20032;-78
2021/07/16 10:38:34;;;;;;;34.92;7.50;;;18.70;99.90;;;;;;5074034;28;20041;-78
2021/07/16 10:41:00;;;;;;;34.70;7.35;;;18.70;99.90;;;;;;5077965;28;20040;-78
2021/07/16 10:43:27;;;;;;;36.67;7.28;;;18.80;99.90;;;;;;5083440;28;20401;-78
2021/07/16 10:45:53;;;;;;;33.45;6.97;;;18.80;99.90;;;;;;5076821;28;20028;-78
2021/07/16 10:48:31;;;;;;;34.80;7.35;;;18.80;99.90;;;;;;5057336;28;20094;-80
2021/07/16 10:50:58;;;;;;;37.45;7.72;;;18.80;99.90;;;;;;5077468;28;20032;-80
2021/07/16 10:53:27;;;;;;;32.65;8.25;;;18.80;99.90;;;;;;5073799;28;20035;-80
2021/07/16 10:55:56;;;;;;;37.08;9.88;;;18.80;99.90;;;;;;5075310;28;20051;-80
2021/07/16 10:58:23;;;;;;;36.75;7.95;;;18.80;99.90;;;;;;5075780;28;20033;-80
2021/07/16 11:01:03;;;;;;;37.97;8.05;;;18.80;99.90;;;;;;5074432;28;20141;-80
2021/07/16 11:03:45;;;;;;;32.25;7.60;;;18.90;99.90;;;;;;5074427;28;20028;-80
2021/07/16 11:06:13;;;;;;;30.55;7.18;;;18.90;99.90;;;;;;5086066;28;20047;-80
2021/07/16 11:08:40;;;;;;;37.50;8.07;;;18.80;99.90;;;;;;5091093;28;20060;-80
2021/07/16 11:11:17;;;;;;;40.83;8.20;;;18.90;99.90;;;;;;5092001;28;20060;-80
2021/07/16 11:13:55;;;;;;;32.22;7.65;;;18.90;99.90;;;;;;5090764;28;20035;-80
2021/07/16 11:16:27;;;;;;;44.05;8.57;;;18.90;99.90;;;;;;5088363;28;20644;-80
2021/07/16 11:19:03;;;;;;;36.33;7.60;;;19.00;99.90;;;;;;5089730;28;20395;-80
2021/07/16 11:21:51;;;;;;;33.35;7.40;;;18.90;99.90;;;;;;5092074;28;20451;-80
2021/07/16 11:24:19;;;;;;;39.25;7.88;;;19.00;99.90;;;;;;5091549;28;20036;-80
2021/07/16 11:27:02;;;;;;;37.25;8.15;;;19.00;99.90;;;;;;5077386;28;20476;-80
2021/07/16 11:29:41;;;;;;;35.05;7.85;;;19.00;99.90;;;;;;5095526;28;20499;-80
2021/07/16 11:32:13;;;;;;;45.40;7.85;;;19.00;99.90;;;;;;5074844;28;20048;-80
2021/07/16 11:34:59;;;;;;;35.97;8.18;;;19.10;99.90;;;;;;5082916;28;20040;-80
2021/07/16 11:37:43;;;;;;;35.17;7.68;;;19.10;99.90;;;;;;5095322;28;20147;-80
2021/07/16 11:40:12;;;;;;;42.97;9.07;;;19.10;99.90;;;;;;5095352;28;20040;-80
2021/07/16 11:42:41;;;;;;;35.25;7.68;;;19.20;99.90;;;;;;5094032;28;20428;-80
2021/07/16 11:45:10;;;;;;;35.63;7.10;;;19.20;99.90;;;;;;5094026;28;20037;-78
2021/07/16 11:47:40;;;;;;;33.40;7.97;;;19.20;99.90;;;;;;5090832;28;20032;-78
2021/07/16 11:50:12;;;;;;;36.13;7.97;;;19.30;99.90;;;;;;5078182;28;20033;-80
2021/07/16 11:52:44;;;;;;;39.45;7.90;;;19.30;99.90;;;;;;5081584;28;20056;-80
2021/07/16 11:55:13;;;;;;;31.05;7.45;;;19.40;99.90;;;;;;5093558;28;20028;-80
2021/07/16 11:57:54;;;;;;;31.65;7.80;;;19.40;99.90;;;;;;5086682;28;20037;-80
2021/07/16 12:00:26;;;;;;;36.22;8.20;;;19.50;99.90;;;;;;5067716;28;20044;-80
2021/07/16 12:03:18;;;;;;;37.67;7.47;;;19.50;99.90;;;;;;5078299;28;20044;-76
2021/07/16 12:06:04;;;;;;;34.08;7.95;;;19.50;99.90;;;;;;5062278;28;20041;-76
2021/07/16 12:08:31;;;;;;;32.58;8.10;;;19.50;99.90;;;;;;5080526;28;20499;-78
2021/07/16 12:11:09;;;;;;;39.00;8.60;;;19.60;99.90;;;;;;5070129;28;20040;-79
2021/07/16 12:13:36;;;;;;;35.35;8.40;;;19.60;99.90;;;;;;5090716;28;20471;-79
2021/07/16 12:16:08;;;;;;;33.35;8.63;;;19.60;99.90;;;;;;5079748;28;20028;-81
2021/07/16 12:18:37;;;;;;;39.75;9.00;;;19.60;99.90;;;;;;5060319;28;20040;-81
2021/07/16 12:21:07;;;;;;;28.45;8.13;;;19.60;99.90;;;;;;5089168;28;20063;-81
2021/07/16 12:23:33;;;;;;;36.78;8.20;;;19.60;99.90;;;;;;5062582;28;20048;-81
2021/07/16 12:26:35;;;;;;;31.65;7.82;;;19.70;99.90;;;;;;5077474;28;20039;-84
2021/07/16 12:29:25;;;;;;;30.83;7.97;;;19.70;99.90;;;;;;5020902;28;20077;-85
2021/07/16 12:31:53;;;;;;;33.60;8.05;;;19.60;99.90;;;;;;5034744;28;20095;-85
2021/07/16 12:34:31;;;;;;;35.50;8.60;;;19.60;99.90;;;;;;5075897;28;20050;-84
2021/07/16 12:37:12;;;;;;;35.72;8.23;;;19.70;99.90;;;;;;5093895;28;20423;-86
2021/07/16 12:39:41;;;;;;;41.05;8.75;;;19.70;99.90;;;;;;5094076;28;20046;-85
2021/07/16 12:42:15;;;;;;;31.35;8.63;;;19.70;99.90;;;;;;5076127;28;20051;-85
2021/07/16 12:45:13;;;;;;;40.75;8.80;;;19.60;99.90;;;;;;5084418;28;20047;-85
2021/07/16 12:47:51;;;;;;;37.47;9.25;;;19.60;99.90;;;;;;5085023;28;20028;-83
2021/07/16 12:50:22;;;;;;;47.78;9.18;;;19.60;99.90;;;;;;5079769;28;20454;-83
2021/07/16 12:52:56;;;;;;;40.28;9.75;;;19.60;99.90;;;;;;5078255;28;20074;-84